Time;durP1;ratioP1;P1;durP2;ratioP2;P2;SDS_P1;SDS_P2;PMS_P1;PMS_P2;Temp;Humidity;BMP_temperature;BMP_pressure;BME280_temperature;BME280_humidity;BME280_pressure;Samples;Min_cycle;Max_cycle;Signal;HPM_P1;HPM_P2
2022/03/14 00:01:07;;;;;;;0.70;0.70;;;3.60;41.50;;;2.21;28.61;95273.22;5055702;28;20234;-85
2022/03/14 00:04:09;;;;;;;0.70;0.70;;;3.60;41.50;;;2.25;28.65;95282.38;5026517;28;20232;-85
2022/03/14 00:06:29;;;;;;;0.70;0.70;;;3.60;41.50;;;2.31;28.74;95302.56;5034314;28;20292;-84
2022/03/14 00:09:06;;;;;;;0.80;0.80;;;3.60;41.50;;;2.29;28.75;95296.69;5030387;28;20310;-84
2022/03/14 00:11:36;;;;;;;0.75;0.75;;;3.50;41.40;;;2.15;28.93;95284.94;5038477;28;20707;-84
2022/03/14 00:14:07;;;;;;;0.68;0.68;;;3.50;41.50;;;2.28;28.75;95309.78;5039147;28;20310;-84
2022/03/14 00:16:43;;;;;;;0.80;0.80;;;3.50;41.50;;;2.26;29.04;95306.50;5031614;28;20189;-85
2022/03/14 00:19:11;;;;;;;0.80;0.80;;;3.50;41.50;;;2.19;29.13;95303.63;5036108;28;20227;-84
2022/03/14 00:21:39;;;;;;;0.80;0.80;;;3.50;41.50;;;2.23;28.79;95304.97;5049647;28;20201;-84
2022/03/14 00:24:10;;;;;;;0.65;0.65;;;3.50;41.60;;;2.21;28.82;95312.88;5018468;28;20232;-85
2022/03/14 00:26:39;;;;;;;0.80;0.80;;;3.50;41.60;;;2.20;28.87;95313.03;5035941;28;20282;-84
2022/03/14 00:29:07;;;;;;;0.80;0.80;;;3.50;41.70;;;2.18;28.99;95315.72;5018396;28;20248;-85
2022/03/14 00:31:35;;;;;;;0.80;0.80;;;3.40;41.60;;;2.17;28.83;95316.69;5037149;28;20255;-85
2022/03/14 00:34:03;;;;;;;0.73;0.73;;;3.40;41.70;;;2.15;28.85;95310.81;5028724;28;20222;-84
2022/03/14 00:36:31;;;;;;;0.80;0.80;;;3.40;41.60;;;2.16;29.11;95306.44;5051590;28;20196;-84
2022/03/14 00:38:58;;;;;;;0.80;0.80;;;3.40;42.90;;;2.16;28.96;95311.63;5050937;28;20223;-83
2022/03/14 00:41:25;;;;;;;0.70;0.70;;;3.40;41.80;;;1.97;29.03;95287.31;5066401;28;20322;-83
2022/03/14 00:43:52;;;;;;;0.80;0.80;;;3.30;41.70;;;2.13;29.00;95314.47;5037652;28;20705;-84
2022/03/14 00:46:19;;;;;;;0.80;0.80;;;3.30;41.70;;;2.11;29.04;95317.19;5054930;28;20224;-84
2022/03/14 00:48:47;;;;;;;0.77;0.77;;;3.40;41.80;;;2.03;28.81;95306.69;5039566;28;20229;-84
2022/03/14 00:51:14;;;;;;;0.80;0.80;;;3.30;41.70;;;2.06;29.08;95319.34;5034618;28;20212;-84
2022/03/14 00:53:42;;;;;;;0.73;0.73;;;3.30;41.80;;;2.01;29.19;95308.56;5034011;28;20342;-84
2022/03/14 00:56:09;;;;;;;0.70;0.70;;;3.30;41.70;;;1.97;29.14;95305.41;5034854;28;20611;-84
2022/03/14 00:58:36;;;;;;;0.70;0.70;;;3.30;41.80;;;2.05;28.92;95318.53;5034861;28;20311;-84
2022/03/14 01:01:07;;;;;;;0.60;0.60;;;3.30;41.90;;;1.91;29.09;95301.56;5021109;28;20210;-84
2022/03/14 01:03:35;;;;;;;0.70;0.70;;;3.20;41.80;;;2.04;29.12;95326.44;5017898;28;20244;-85
2022/03/14 01:06:04;;;;;;;0.77;0.77;;;3.20;41.80;;;1.96;29.16;95315.91;5003340;28;20276;-85
2022/03/14 01:08:31;;;;;;;0.55;0.55;;;3.20;41.80;;;1.88;29.04;95303.59;5035177;28;20227;-84
2022/03/14 01:10:58;;;;;;;0.70;0.70;;;3.20;41.80;;;1.96;29.24;95328.84;5017900;28;20205;-85
2022/03/14 01:13:26;;;;;;;0.80;0.80;;;3.20;41.90;;;1.91;29.37;95326.63;5034242;28;20682;-84
2022/03/14 01:15:54;;;;;;;0.80;0.80;;;3.20;41.90;;;1.88;29.15;95319.94;5017622;28;20219;-84
2022/03/14 01:18:21;;;;;;;0.70;0.70;;;3.20;42.00;;;1.85;29.33;95319.38;5036498;28;20220;-84
2022/03/14 01:20:49;;;;;;;0.70;0.70;;;3.10;41.90;;;1.83;28.89;95329.88;5017495;28;20299;-85
2022/03/14 01:23:16;;;;;;;0.80;0.80;;;3.10;42.00;;;1.77;29.79;95320.03;5001251;28;20321;-85
2022/03/14 01:25:45;;;;;;;0.70;0.70;;;3.10;41.90;;;1.75;29.30;95314.97;5028944;28;20207;-84
2022/03/14 01:28:13;;;;;;;0.70;0.70;;;3.00;41.90;;;1.73;29.54;95311.72;5050214;28;20224;-84
2022/03/14 01:30:43;;;;;;;0.80;0.80;;;3.10;42.00;;;1.72;29.61;95316.97;5017603;28;20200;-84
2022/03/14 01:33:12;;;;;;;0.80;0.80;;;3.00;42.00;;;1.70;29.45;95314.53;5036389;28;20200;-84
2022/03/14 01:35:41;;;;;;;0.68;0.68;;;3.00;42.00;;;1.68;29.49;95311.25;5033776;28;20247;-84
2022/03/14 01:38:09;;;;;;;0.73;0.73;;;3.00;42.00;;;1.66;29.35;95318.31;5033328;28;20189;-84
2022/03/14 01:40:37;;;;;;;0.70;0.70;;;3.00;42.10;;;1.59;29.64;95305.06;5017320;28;20193;-85
2022/03/14 01:43:04;;;;;;;0.70;0.70;;;2.90;42.00;;;1.60;29.58;95311.88;5050004;28;20266;-85
2022/03/14 01:45:31;;;;;;;0.70;0.70;;;3.00;42.10;;;1.60;29.61;95321.44;5033729;28;20276;-84
2022/03/14 01:47:58;;;;;;;0.80;0.80;;;2.90;42.20;;;1.57;29.34;95317.28;5033084;28;20205;-84
2022/03/14 01:50:25;;;;;;;0.80;0.80;;;2.90;42.10;;;1.50;29.65;95321.34;5017062;28;20223;-85
2022/03/14 01:52:53;;;;;;;0.70;0.70;;;2.80;42.10;;;1.49;29.49;95317.13;5033769;28;20547;-85
2022/03/14 01:55:20;;;;;;;0.70;0.70;;;2.80;42.10;;;1.37;29.48;95300.84;5033391;28;20552;-85
2022/03/14 01:57:48;;;;;;;0.70;0.70;;;2.80;42.20;;;1.45;29.69;95315.72;5029339;28;20197;-85
2022/03/14 02:00:15;;;;;;;0.70;0.70;;;2.80;42.20;;;1.42;29.54;95332.31;5000320;28;20307;-85
2022/03/14 02:02:43;;;;;;;0.70;0.70;;;2.70;42.10;;;1.36;29.59;95325.06;5033316;28;20709;-84
2022/03/14 02:05:12;;;;;;;0.70;0.70;;;2.70;42.10;;;1.34;29.35;95329.50;5021946;28;20261;-84
2022/03/14 02:07:39;;;;;;;0.70;0.70;;;2.70;42.20;;;1.29;29.50;95318.75;5048666;28;20208;-84
2022/03/14 02:10:08;;;;;;;0.80;0.80;;;2.60;42.10;;;1.26;29.50;95322.41;5033237;28;20222;-84
2022/03/14 02:12:35;;;;;;;0.90;0.90;;;2.60;42.10;;;1.23;29.49;95321.81;5016464;28;20243;-84
2022/03/14 02:15:03;;;;;;;0.70;0.70;;;2.60;42.20;;;1.19;29.61;95336.75;5020748;28;20319;-84
2022/03/14 02:17:30;;;;;;;0.80;0.80;;;2.60;42.30;;;1.17;29.58;95330.06;5052844;28;20203;-85
2022/03/14 02:20:00;;;;;;;0.70;0.70;;;2.50;42.20;;;1.12;29.54;95338.19;5050775;28;20305;-84
2022/03/14 02:22:27;;;;;;;0.70;0.70;;;2.50;42.50;;;1.07;29.64;95335.97;5052741;28;20188;-85
2022/03/14 02:24:55;;;;;;;0.70;0.70;;;2.50;42.50;;;1.07;29.73;95337.75;5035971;28;20606;-84
2022/03/14 02:27:22;;;;;;;0.70;0.70;;;2.40;42.40;;;1.04;29.77;95336.22;5032535;28;20242;-84
2022/03/14 02:29:49;;;;;;;0.70;0.70;;;2.40;42.40;;;0.99;29.70;95329.78;5016230;28;20362;-85
2022/03/14 02:32:16;;;;;;;0.70;0.70;;;2.40;42.60;;;0.98;29.74;95328.97;5016276;28;20304;-84
2022/03/14 02:34:44;;;;;;;0.80;0.80;;;2.40;42.60;;;0.96;29.92;95333.41;5034133;28;20315;-84
2022/03/14 02:37:11;;;;;;;0.75;0.75;;;2.30;42.60;;;0.99;30.09;95340.94;5050370;28;20208;-84
2022/03/14 02:39:38;;;;;;;0.80;0.80;;;2.30;42.70;;;0.94;29.85;95330.13;5052428;28;20223;-85
2022/03/14 02:42:08;;;;;;;0.70;0.70;;;2.30;42.70;;;0.91;29.94;95331.19;5051047;28;20192;-84
2022/03/14 02:44:42;;;;;;;0.80;0.80;;;2.30;42.80;;;0.98;30.22;95346.22;5019356;28;20409;-85
2022/03/14 02:47:10;;;;;;;0.70;0.70;;;2.30;42.90;;;0.98;30.15;95351.38;5051595;28;20199;-84
2022/03/14 02:49:38;;;;;;;0.80;0.80;;;2.30;43.00;;;0.95;30.17;95355.03;5035511;28;20307;-85
2022/03/14 02:52:05;;;;;;;0.80;0.80;;;2.30;42.90;;;0.86;29.87;95346.25;5042341;28;20292;-84
2022/03/14 02:54:32;;;;;;;0.70;0.70;;;2.30;43.00;;;0.88;30.03;95356.44;5048746;28;20220;-84
2022/03/14 02:57:00;;;;;;;0.80;0.80;;;2.20;42.90;;;0.86;30.05;95359.16;5015815;28;20200;-85
2022/03/14 02:59:27;;;;;;;0.70;0.70;;;2.20;42.90;;;0.78;30.13;95359.78;5017711;28;20259;-85
2022/03/14 03:01:54;;;;;;;0.80;0.80;;;2.20;42.90;;;0.76;29.96;95374.56;5031375;28;20204;-84
2022/03/14 03:04:22;;;;;;;0.80;0.80;;;2.10;42.80;;;0.59;30.12;95372.47;5015980;28;20224;-85
2022/03/14 03:06:49;;;;;;;0.80;0.80;;;2.10;42.90;;;0.66;29.46;95390.88;5015994;28;20267;-86
2022/03/14 03:09:17;;;;;;;0.70;0.70;;;2.10;42.80;;;0.59;29.69;95393.13;5024100;28;20251;-84
2022/03/14 03:11:44;;;;;;;0.80;0.80;;;2.00;42.80;;;0.41;30.20;95382.44;5035245;28;20204;-85
2022/03/14 03:14:11;;;;;;;0.70;0.70;;;2.00;42.90;;;0.47;30.06;95406.00;5048287;28;20236;-85
2022/03/14 03:16:39;;;;;;;0.80;0.80;;;1.90;42.80;;;0.44;30.15;95419.16;5032726;28;20224;-84
2022/03/14 03:19:06;;;;;;;0.80;0.80;;;1.90;42.90;;;0.36;30.21;95415.53;5016127;28;20231;-84
2022/03/14 03:21:34;;;;;;;0.80;0.80;;;1.90;43.00;;;0.35;30.30;95414.69;5031727;28;20674;-84
2022/03/14 03:24:02;;;;;;;0.70;0.70;;;1.80;42.90;;;0.31;30.33;95421.03;5015431;28;20682;-85
2022/03/14 03:26:29;;;;;;;0.70;0.70;;;1.80;43.00;;;0.24;30.33;95423.25;4999387;28;20196;-84
2022/03/14 03:28:56;;;;;;;0.80;0.80;;;1.70;43.00;;;0.19;30.31;95429.69;5032228;28;20278;-85
2022/03/14 03:31:26;;;;;;;0.80;0.80;;;1.70;43.00;;;0.12;30.16;95427.56;5021926;28;20275;-84
2022/03/14 03:33:53;;;;;;;0.80;0.80;;;1.60;43.10;;;0.05;29.98;95423.81;5051591;28;20220;-84
2022/03/14 03:36:20;;;;;;;0.70;0.70;;;1.60;43.00;;;0.04;30.39;95426.47;5051750;28;20212;-84
2022/03/14 03:38:47;;;;;;;0.70;0.70;;;1.50;43.10;;;-0.01;30.52;95424.28;5035475;28;20255;-84
2022/03/14 03:41:14;;;;;;;0.70;0.70;;;1.50;43.20;;;-0.03;30.44;95432.09;5047288;28;20405;-85
2022/03/14 03:43:41;;;;;;;0.70;0.70;;;1.40;43.30;;;-0.09;30.63;95427.41;5052116;28;20235;-84
2022/03/14 03:46:08;;;;;;;0.80;0.80;;;1.40;43.40;;;-0.12;30.42;95424.22;5051905;28;20207;-84
2022/03/14 03:48:36;;;;;;;0.80;0.80;;;1.40;43.50;;;-0.07;30.48;95427.31;5066788;28;20274;-84
2022/03/14 03:51:03;;;;;;;0.80;0.80;;;1.40;43.50;;;-0.09;30.59;95424.00;5031357;28;20724;-85
2022/03/14 03:53:30;;;;;;;0.70;0.70;;;1.30;43.50;;;-0.10;30.77;95435.25;5015358;28;20208;-84
2022/03/14 03:55:57;;;;;;;0.80;0.80;;;1.30;43.60;;;-0.13;30.77;95433.72;5033275;28;20185;-85
2022/03/14 03:58:28;;;;;;;0.70;0.70;;;1.30;43.80;;;-0.12;30.67;95443.09;5032958;28;20239;-85
2022/03/14 04:00:55;;;;;;;0.70;0.70;;;1.30;43.90;;;-0.19;30.91;95431.59;5048377;28;20286;-84
2022/03/14 04:03:23;;;;;;;0.80;0.80;;;1.30;44.00;;;-0.11;30.84;95449.06;5045767;28;20220;-84
2022/03/14 04:05:50;;;;;;;0.90;0.90;;;1.30;43.90;;;-0.24;30.55;95416.47;5035141;28;20647;-84
2022/03/14 04:08:17;;;;;;;0.80;0.80;;;1.30;44.10;;;-0.09;30.85;95445.44;5050867;28;20219;-84
2022/03/14 04:10:47;;;;;;;0.70;0.70;;;1.20;45.20;;;-0.09;30.99;95439.47;5038232;28;20220;-84
2022/03/14 04:13:14;;;;;;;0.70;0.70;;;1.30;44.10;;;-0.04;30.92;95451.09;5062623;28;20223;-84
2022/03/14 04:15:46;;;;;;;0.90;0.90;;;1.30;44.20;;;-0.04;31.10;95458.84;5031784;28;20216;-84
2022/03/14 04:18:14;;;;;;;0.80;0.80;;;1.30;44.20;;;-0.06;30.77;95452.13;5048061;28;20809;-84
2022/03/14 04:20:41;;;;;;;0.60;0.60;;;1.20;44.00;;;-0.09;31.06;95454.94;5048093;28;20674;-84
2022/03/14 04:23:09;;;;;;;0.80;0.80;;;1.20;44.10;;;-0.07;30.79;95463.41;5049860;28;20604;-84
2022/03/14 04:25:36;;;;;;;0.80;0.80;;;1.30;44.20;;;-0.11;30.95;95460.22;5050907;28;20204;-85
2022/03/14 04:28:07;;;;;;;0.70;0.70;;;1.20;44.10;;;-0.13;31.28;95461.28;5053026;28;20204;-84
2022/03/14 04:30:34;;;;;;;0.80;0.80;;;1.20;44.20;;;-0.14;30.93;95467.38;5050860;28;20201;-85
2022/03/14 04:33:08;;;;;;;0.80;0.80;;;1.20;44.30;;;-0.17;31.01;95482.13;5020742;28;20196;-84
2022/03/14 04:35:40;;;;;;;0.82;0.82;;;1.20;44.20;;;-0.24;31.17;95480.09;5051219;28;20227;-85
2022/03/14 04:38:08;;;;;;;0.70;0.70;;;1.20;44.60;;;-0.22;30.95;95485.94;5035527;28;20185;-84
2022/03/14 04:40:37;;;;;;;0.70;0.70;;;1.20;44.40;;;-0.26;31.18;95497.44;5037964;28;20227;-84
2022/03/14 04:43:07;;;;;;;0.80;0.80;;;1.10;44.30;;;-0.30;31.02;95493.44;5054341;28;20262;-84
2022/03/14 04:45:35;;;;;;;0.70;0.70;;;1.10;44.30;;;-0.34;31.10;95492.84;5038446;28;20234;-85
2022/03/14 04:48:04;;;;;;;0.70;0.70;;;1.10;44.40;;;-0.39;31.41;95494.88;5068645;28;20577;-85
2022/03/14 04:50:32;;;;;;;0.80;0.80;;;1.10;44.30;;;-0.46;31.19;95496.25;5018296;28;20289;-84
2022/03/14 04:52:59;;;;;;;0.80;0.80;;;1.00;44.20;;;-0.60;31.21;95482.59;5051852;28;20662;-84
2022/03/14 04:55:27;;;;;;;0.80;0.80;;;1.00;44.30;;;-0.58;31.18;95491.06;5017224;28;20225;-85
2022/03/14 04:57:54;;;;;;;0.70;0.70;;;0.90;44.40;;;-0.58;30.88;95510.84;5045034;28;20200;-84
2022/03/14 05:00:22;;;;;;;0.80;0.80;;;0.90;44.40;;;-0.61;31.19;95514.47;5050741;28;20203;-85
2022/03/14 05:02:49;;;;;;;0.70;0.70;;;0.90;44.50;;;-0.65;31.57;95513.03;5028531;28;20204;-84
2022/03/14 05:05:16;;;;;;;0.70;0.70;;;0.80;44.50;;;-0.68;31.39;95516.66;5038815;28;20250;-84
2022/03/14 05:07:43;;;;;;;0.80;0.80;;;0.80;44.50;;;-0.70;31.24;95521.06;5034731;28;20209;-85
2022/03/14 05:10:10;;;;;;;0.70;0.70;;;0.80;44.60;;;-0.77;31.29;95524.19;5038274;28;20221;-84
2022/03/14 05:12:37;;;;;;;0.70;0.70;;;0.70;44.50;;;-0.75;31.37;95535.22;5026059;28;20196;-84
2022/03/14 05:15:05;;;;;;;0.70;0.70;;;0.70;44.60;;;-0.81;31.31;95545.03;5054389;28;20212;-84
2022/03/14 05:17:34;;;;;;;0.70;0.70;;;0.70;44.70;;;-0.83;31.48;95546.88;5051689;28;20189;-84
2022/03/14 05:20:02;;;;;;;0.80;0.80;;;0.70;44.70;;;-0.88;31.37;95548.94;5034337;28;20230;-84
2022/03/14 05:22:30;;;;;;;0.70;0.70;;;0.60;44.70;;;-0.90;31.51;95558.53;5018119;28;20203;-84
2022/03/14 05:24:57;;;;;;;0.90;0.90;;;0.60;44.70;;;-0.90;31.50;95568.00;5001580;28;20232;-84
2022/03/14 05:27:24;;;;;;;0.70;0.70;;;0.50;44.70;;;-0.92;31.35;95573.25;5035708;28;20197;-84
2022/03/14 05:29:51;;;;;;;0.80;0.80;;;0.50;44.70;;;-0.93;31.30;95568.22;5019149;28;20263;-85
2022/03/14 05:32:20;;;;;;;0.85;0.85;;;0.50;44.90;;;-0.90;31.50;95570.59;5050026;28;20211;-84
2022/03/14 05:34:47;;;;;;;0.70;0.70;;;0.50;44.90;;;-0.90;31.43;95565.44;5001755;28;20213;-84
2022/03/14 05:37:15;;;;;;;0.70;0.70;;;0.50;45.20;;;-0.88;31.60;95566.13;5011194;28;20204;-85
2022/03/14 05:39:43;;;;;;;0.80;0.80;;;0.50;45.10;;;-0.86;31.54;95559.13;5021967;28;20212;-85
2022/03/14 05:42:10;;;;;;;0.80;0.80;;;0.50;45.20;;;-0.83;31.40;95559.75;5033930;28;20259;-84
2022/03/14 05:44:37;;;;;;;0.80;0.80;;;0.50;45.10;;;-0.95;31.48;95540.00;5026383;28;20257;-84
2022/03/14 05:47:05;;;;;;;0.80;0.80;;;0.60;45.30;;;-0.76;31.74;95565.28;5053502;28;20231;-85
2022/03/14 05:49:32;;;;;;;0.70;0.70;;;0.50;45.30;;;-0.68;31.63;95565.59;5060800;28;20212;-85
2022/03/14 05:51:59;;;;;;;0.80;0.80;;;0.60;45.50;;;-0.62;31.44;95572.06;5034511;28;20235;-84
2022/03/14 05:54:26;;;;;;;0.80;0.80;;;0.60;45.50;;;-0.56;31.78;95576.81;5052603;28;20234;-84
2022/03/14 05:56:58;;;;;;;0.70;0.70;;;0.60;45.50;;;-0.50;31.83;95586.69;5037359;28;20199;-84
2022/03/14 05:59:26;;;;;;;0.80;0.80;;;0.60;45.60;;;-0.43;31.74;95578.53;5029406;28;20621;-85
2022/03/14 06:01:53;;;;;;;0.77;0.77;;;0.70;45.70;;;-0.34;31.60;95594.16;5053438;28;20873;-84
2022/03/14 06:04:21;;;;;;;0.73;0.73;;;0.80;46.00;;;-0.26;31.92;95600.53;5049449;28;20220;-84
2022/03/14 06:06:48;;;;;;;0.80;0.80;;;0.80;45.90;;;-0.24;31.66;95585.78;5033349;28;20192;-84
2022/03/14 06:09:15;;;;;;;0.90;0.90;;;0.80;45.90;;;-0.12;31.96;95602.97;5035981;28;20222;-84
2022/03/14 06:11:42;;;;;;;0.77;0.77;;;0.90;45.90;;;-0.05;31.70;95595.59;5054833;28;20195;-85
2022/03/14 06:14:11;;;;;;;0.80;0.80;;;0.90;46.00;;;0.03;31.59;95606.19;5052731;28;20220;-84
2022/03/14 06:16:38;;;;;;;0.80;0.80;;;1.00;46.00;;;0.12;31.36;95604.72;5054389;28;20197;-84
2022/03/14 06:19:05;;;;;;;0.70;0.70;;;1.10;46.10;;;0.21;31.68;95610.97;5032993;28;20217;-84
2022/03/14 06:21:34;;;;;;;0.80;0.80;;;1.10;46.10;;;0.31;31.79;95625.66;5022132;28;20209;-84
2022/03/14 06:24:03;;;;;;;0.70;0.70;;;1.20;46.20;;;0.39;31.84;95630.28;5035941;28;20220;-85
2022/03/14 06:26:34;;;;;;;0.70;0.70;;;1.30;46.30;;;0.41;31.85;95619.84;5035780;28;20646;-85
2022/03/14 06:29:02;;;;;;;0.80;0.80;;;1.40;47.60;;;0.61;31.79;95639.88;5033440;28;20228;-84
2022/03/14 06:31:31;;;;;;;0.90;0.90;;;1.50;46.50;;;0.52;31.88;95616.50;5016604;28;20220;-85
2022/03/14 06:33:59;;;;;;;0.80;0.80;;;1.50;46.40;;;0.80;31.88;95641.09;5035943;28;20238;-85
2022/03/14 06:36:28;;;;;;;0.80;0.80;;;1.60;46.50;;;0.90;31.99;95638.66;5021669;28;20283;-85
2022/03/14 06:38:59;;;;;;;0.80;0.80;;;1.70;46.50;;;1.02;31.82;95634.34;5048943;28;20219;-84
2022/03/14 06:41:27;;;;;;;0.70;0.70;;;1.80;46.60;;;1.08;31.61;95633.88;5016772;28;20296;-84
2022/03/14 06:43:56;;;;;;;0.88;0.88;;;1.80;46.60;;;1.22;31.86;95631.09;5036974;28;20299;-84
2022/03/14 06:46:24;;;;;;;0.80;0.80;;;2.00;46.80;;;1.36;31.84;95621.47;5051568;28;20204;-84
2022/03/14 06:48:51;;;;;;;0.70;0.70;;;2.10;46.80;;;1.48;32.17;95624.84;5033987;28;20216;-84
2022/03/14 06:51:20;;;;;;;0.80;0.80;;;2.20;46.80;;;1.63;32.26;95634.00;5035474;28;20290;-85
2022/03/14 06:53:48;;;;;;;0.70;0.70;;;2.20;46.90;;;1.76;32.47;95628.72;5036131;28;20765;-84
2022/03/14 06:56:16;;;;;;;0.80;0.80;;;2.30;46.90;;;1.83;32.17;95637.66;5047575;28;20188;-84
2022/03/14 06:58:44;;;;;;;0.80;0.80;;;2.50;47.00;;;2.02;31.78;95654.31;5032194;28;20232;-84
2022/03/14 07:01:12;;;;;;;0.70;0.70;;;2.60;46.90;;;2.13;31.81;95663.81;5032551;28;20504;-85
2022/03/14 07:03:39;;;;;;;0.80;0.80;;;2.70;46.90;;;2.24;31.98;95654.25;5047735;28;20227;-84
2022/03/14 07:06:12;;;;;;;0.60;0.60;;;2.80;46.90;;;2.34;32.02;95651.75;5033006;28;20213;-85
2022/03/14 07:08:39;;;;;;;0.80;0.80;;;2.90;46.90;;;2.48;31.60;95667.94;5035186;28;20214;-85
2022/03/14 07:11:06;;;;;;;0.82;0.82;;;3.00;47.00;;;2.58;32.29;95670.66;5045762;28;20200;-85
2022/03/14 07:13:34;;;;;;;0.70;0.70;;;3.10;47.10;;;2.70;32.16;95678.22;5015604;28;20220;-85
2022/03/14 07:16:01;;;;;;;0.70;0.70;;;3.20;47.00;;;2.77;32.03;95667.38;5035756;28;20200;-85
2022/03/14 07:18:30;;;;;;;0.70;0.70;;;3.30;47.10;;;2.95;32.19;95672.84;5068338;28;20223;-85
2022/03/14 07:20:58;;;;;;;0.63;0.63;;;3.50;47.20;;;3.08;31.99;95680.44;5034530;28;20216;-85
2022/03/14 07:23:25;;;;;;;0.60;0.60;;;3.60;47.20;;;3.19;32.12;95683.75;5052504;28;20295;-84
2022/03/14 07:25:52;;;;;;;0.80;0.80;;;3.70;47.20;;;3.29;32.08;95686.41;5029787;28;20244;-84
2022/03/14 07:28:19;;;;;;;0.70;0.70;;;3.80;47.20;;;3.38;31.96;95686.59;5041765;28;20222;-85
2022/03/14 07:30:46;;;;;;;0.73;0.73;;;3.90;47.30;;;3.47;31.96;95684.06;5054184;28;20250;-85
2022/03/14 07:33:13;;;;;;;0.70;0.70;;;4.00;47.20;;;3.67;31.93;95699.72;5031628;28;20300;-84
2022/03/14 07:35:40;;;;;;;0.70;0.70;;;4.10;47.20;;;3.76;32.00;95695.53;5050261;28;20731;-84
2022/03/14 07:38:10;;;;;;;0.80;0.80;;;4.20;47.20;;;3.90;31.94;95710.75;5049834;28;20192;-84
2022/03/14 07:40:39;;;;;;;0.60;0.60;;;4.30;47.20;;;3.94;32.06;95701.75;5016055;28;20205;-84
2022/03/14 07:43:06;;;;;;;0.80;0.80;;;4.40;48.40;;;4.01;31.98;95699.44;5039762;28;20207;-85
2022/03/14 07:45:33;;;;;;;0.80;0.80;;;4.50;47.10;;;4.22;31.93;95711.53;5051485;28;20743;-85
2022/03/14 07:48:06;;;;;;;0.70;0.70;;;4.60;47.20;;;4.33;32.02;95722.66;5035567;28;20198;-84
2022/03/14 07:50:33;;;;;;;0.70;0.70;;;4.70;47.20;;;4.44;32.15;95724.31;5034541;28;20658;-85
2022/03/14 07:53:00;;;;;;;0.80;0.80;;;4.80;47.20;;;4.56;32.08;95726.78;5032788;28;20204;-85
2022/03/14 07:55:27;;;;;;;0.60;0.60;;;4.90;47.40;;;4.68;31.72;95722.31;5035135;28;20674;-86
2022/03/14 07:57:54;;;;;;;0.70;0.70;;;5.00;47.30;;;4.80;31.92;95729.81;5066091;28;20287;-84
2022/03/14 08:00:21;;;;;;;0.68;0.68;;;5.10;47.30;;;4.92;31.94;95730.53;5049723;28;20212;-84
2022/03/14 08:02:50;;;;;;;0.60;0.60;;;5.20;47.40;;;5.04;31.85;95735.59;5052166;28;20220;-85
2022/03/14 08:05:23;;;;;;;0.70;0.70;;;5.40;47.40;;;5.17;31.92;95738.72;5038746;28;20251;-84
2022/03/14 08:07:51;;;;;;;0.60;0.60;;;5.50;47.30;;;5.27;31.77;95743.91;5037906;28;20207;-85
2022/03/14 08:10:19;;;;;;;0.70;0.70;;;5.60;47.30;;;5.39;31.86;95744.59;5071420;28;20211;-85
2022/03/14 08:12:55;;;;;;;0.70;0.70;;;5.70;47.30;;;5.46;31.77;95748.28;5040918;28;20242;-84
2022/03/14 08:15:28;;;;;;;0.70;0.70;;;5.80;47.30;;;5.59;31.55;95758.38;5053456;28;20199;-84
2022/03/14 08:17:59;;;;;;;0.70;0.70;;;5.90;47.30;;;5.70;31.67;95753.03;5042954;28;20235;-85
2022/03/14 08:20:27;;;;;;;0.63;0.63;;;6.00;47.20;;;5.79;31.64;95758.38;5026549;28;20210;-85
2022/03/14 08:22:57;;;;;;;0.60;0.60;;;6.10;47.20;;;5.86;31.45;95756.81;5063518;28;20299;-85
2022/03/14 08:25:30;;;;;;;0.60;0.60;;;6.20;47.30;;;5.95;31.42;95763.78;5054349;28;20304;-84
2022/03/14 08:27:57;;;;;;;0.73;0.73;;;6.30;47.20;;;6.02;31.56;95767.50;5057169;28;20235;-84
2022/03/14 08:30:25;;;;;;;0.75;0.75;;;6.30;47.00;;;6.11;31.57;95770.22;5002258;28;20204;-83
2022/03/14 08:32:56;;;;;;;0.60;0.60;;;6.40;47.00;;;6.07;31.69;95749.66;5037467;28;20199;-84
2022/03/14 08:35:23;;;;;;;0.70;0.70;;;6.50;47.10;;;6.27;31.45;95780.03;5032797;28;20197;-84
2022/03/14 08:37:54;;;;;;;0.60;0.60;;;6.60;47.00;;;6.36;31.50;95774.78;5034975;28;20283;-85
2022/03/14 08:40:24;;;;;;;0.60;0.60;;;6.70;47.10;;;6.47;31.48;95791.19;5038100;28;20649;-84
2022/03/14 08:42:54;;;;;;;0.60;0.60;;;6.70;47.00;;;6.52;31.56;95778.56;5054115;28;20246;-83
2022/03/14 08:45:23;;;;;;;0.60;0.60;;;6.80;47.20;;;6.66;31.66;95778.03;5033815;28;20255;-83
2022/03/14 08:47:51;;;;;;;0.70;0.70;;;6.90;47.20;;;6.75;31.69;95789.41;5017911;28;20666;-84
2022/03/14 08:50:19;;;;;;;0.70;0.70;;;7.00;47.00;;;6.87;31.10;95788.22;5034249;28;20684;-84
2022/03/14 08:52:46;;;;;;;0.60;0.60;;;7.10;47.20;;;6.91;31.13;95780.09;5035117;28;20201;-83
2022/03/14 08:55:14;;;;;;;0.80;0.80;;;7.20;47.20;;;7.11;31.23;95797.25;5050434;28;20223;-84
2022/03/14 08:57:43;;;;;;;0.70;0.70;;;7.30;47.10;;;7.20;31.15;95796.38;5018233;28;20197;-85
2022/03/14 09:00:11;;;;;;;0.60;0.60;;;7.40;47.10;;;7.29;31.30;95799.06;5043939;28;20208;-83
2022/03/14 09:02:41;;;;;;;0.70;0.70;;;7.50;46.90;;;7.31;31.24;95784.91;5062286;28;20197;-85
2022/03/14 09:05:09;;;;;;;0.57;0.57;;;7.60;47.00;;;7.51;31.57;95811.66;5057312;28;20286;-84
2022/03/14 09:07:36;;;;;;;0.55;0.55;;;7.60;47.00;;;7.61;31.00;95808.97;5034550;28;20280;-85
2022/03/14 09:10:06;;;;;;;2.15;1.30;;;7.70;46.80;;;7.69;30.84;95811.63;5050139;28;20220;-85
2022/03/14 09:12:35;;;;;;;0.60;0.60;;;7.80;46.80;;;7.80;30.85;95817.59;5034257;28;20187;-85
2022/03/14 09:15:03;;;;;;;0.50;0.50;;;7.90;46.80;;;7.87;30.79;95809.97;5043903;28;20204;-85
2022/03/14 09:17:32;;;;;;;0.52;0.52;;;8.00;46.80;;;7.94;30.89;95811.00;5068774;28;20231;-84
2022/03/14 09:20:01;;;;;;;0.60;0.60;;;8.10;46.90;;;8.04;30.90;95809.09;5017662;28;20224;-85
2022/03/14 09:22:29;;;;;;;0.60;0.60;;;8.20;46.90;;;8.09;30.92;95798.19;5004088;28;20224;-84
2022/03/14 09:24:57;;;;;;;0.60;0.60;;;8.30;47.00;;;8.24;31.03;95812.34;5053565;28;20246;-85
2022/03/14 09:27:25;;;;;;;0.50;0.50;;;8.30;46.90;;;8.30;30.64;95808.25;5033813;28;20651;-84
2022/03/14 09:29:53;;;;;;;0.52;0.52;;;8.50;46.80;;;8.48;30.96;95826.53;5033712;28;20312;-84
2022/03/14 09:32:20;;;;;;;0.60;0.60;;;8.50;46.70;;;8.57;30.83;95835.22;5016817;28;20303;-85
2022/03/14 09:34:47;;;;;;;0.60;0.60;;;8.60;46.60;;;8.67;30.69;95838.56;5002170;28;20689;-85
2022/03/14 09:37:15;;;;;;;0.50;0.50;;;8.70;46.60;;;8.78;30.83;95837.47;5045251;28;20235;-84
2022/03/14 09:39:43;;;;;;;0.60;0.60;;;8.80;46.70;;;8.84;30.42;95839.44;5017001;28;20220;-85
2022/03/14 09:42:14;;;;;;;0.60;0.60;;;8.90;46.80;;;8.99;30.51;95850.13;5036453;28;20254;-85
2022/03/14 09:44:43;;;;;;;0.70;0.70;;;9.10;46.70;;;9.10;30.46;95852.44;5063875;28;20224;-84
2022/03/14 09:47:14;;;;;;;0.60;0.60;;;9.10;46.90;;;9.18;30.25;95861.28;5016855;28;20618;-85
2022/03/14 09:49:44;;;;;;;0.50;0.50;;;9.20;46.60;;;9.31;30.43;95869.50;5033101;28;20266;-85
2022/03/14 09:52:13;;;;;;;0.50;0.50;;;9.30;46.70;;;9.37;30.18;95868.06;5033227;28;20200;-84
2022/03/14 09:54:40;;;;;;;0.50;0.50;;;9.40;46.50;;;9.48;30.50;95862.50;5032808;28;20225;-85
2022/03/14 09:57:08;;;;;;;0.70;0.70;;;9.50;46.60;;;9.58;30.46;95870.22;5033469;28;20549;-85
2022/03/14 09:59:39;;;;;;;0.47;0.47;;;9.60;46.40;;;9.55;30.17;95844.38;5030316;28;20224;-85
2022/03/14 10:02:09;;;;;;;0.60;0.60;;;9.70;46.60;;;9.69;30.49;95856.81;5049601;28;20185;-85
2022/03/14 10:04:37;;;;;;;0.60;0.60;;;9.80;46.50;;;9.86;30.46;95864.69;5015818;28;20299;-84
2022/03/14 10:07:06;;;;;;;0.60;0.60;;;9.90;46.50;;;9.88;30.20;95853.03;5018561;28;20322;-84
2022/03/14 10:09:36;;;;;;;0.50;0.50;;;9.90;46.40;;;10.09;30.15;95873.53;5032846;28;20244;-85
2022/03/14 10:12:04;;;;;;;0.50;0.50;;;10.00;44.80;;;10.18;30.15;95866.47;5021095;28;20192;-84
2022/03/14 10:14:32;;;;;;;0.60;0.60;;;10.10;46.00;;;10.32;30.22;95877.28;5021662;28;20250;-84
2022/03/14 10:17:00;;;;;;;0.60;0.60;;;10.30;44.80;;;10.38;29.91;95879.25;5043446;28;20206;-84
2022/03/14 10:19:34;;;;;;;0.60;0.60;;;10.30;44.50;;;10.48;30.07;95887.75;5067871;28;20238;-85
2022/03/14 10:22:16;;;;;;;0.70;0.70;;;10.40;44.40;;;10.59;29.98;95899.69;5052552;28;20241;-84
2022/03/14 10:24:44;;;;;;;0.60;0.60;;;10.50;44.40;;;10.69;29.97;95899.50;5016378;28;20220;-85
2022/03/14 10:27:18;;;;;;;0.50;0.50;;;10.60;45.90;;;10.80;29.85;95906.22;4999175;28;20222;-85
2022/03/14 10:29:49;;;;;;;0.60;0.60;;;10.70;44.20;;;10.91;29.88;95903.22;4999775;28;20228;-85
2022/03/14 10:32:34;;;;;;;0.50;0.50;;;10.80;44.50;;;10.91;29.79;95886.66;5015821;28;20212;-85
2022/03/14 10:35:05;;;;;;;0.50;0.50;;;10.90;44.80;;;11.14;29.97;95905.13;5019408;28;20231;-85